sensor_id;sensor_type;location;lat;lon;timestamp;P1;durP1;ratioP1;P2;durP2;ratioP2
1020;SDS011;499;42.648;23.270;2023-12-07T00:00:35;34.70;;;19.50;;
1020;SDS011;499;42.648;23.270;2023-12-07T00:03:04;32.20;;;20.07;;
1020;SDS011;499;42.648;23.270;2023-12-07T00:05:43;31.43;;;18.17;;
1020;SDS011;499;42.648;23.270;2023-12-07T00:08:40;28.53;;;18.77;;
1020;SDS011;499;42.648;23.270;2023-12-07T00:11:14;35.57;;;19.53;;
1020;SDS011;499;42.648;23.270;2023-12-07T00:14:06;35.17;;;20.17;;
1020;SDS011;499;42.648;23.270;2023-12-07T00:16:52;33.90;;;19.23;;
1020;SDS011;499;42.648;23.270;2023-12-07T00:19:34;31.87;;;18.77;;
1020;SDS011;499;42.648;23.270;2023-12-07T00:22:30;32.20;;;20.43;;
1020;SDS011;499;42.648;23.270;2023-12-07T00:25:17;34.27;;;18.60;;
1020;SDS011;499;42.648;23.270;2023-12-07T00:28:09;32.90;;;19.30;;
1020;SDS011;499;42.648;23.270;2023-12-07T00:30:52;27.10;;;18.70;;
1020;SDS011;499;42.648;23.270;2023-12-07T00:33:30;31.40;;;18.23;;
1020;SDS011;499;42.648;23.270;2023-12-07T00:36:17;32.70;;;18.60;;
1020;SDS011;499;42.648;23.270;2023-12-07T00:38:49;31.53;;;20.80;;
1020;SDS011;499;42.648;23.270;2023-12-07T00:41:20;28.53;;;20.13;;
1020;SDS011;499;42.648;23.270;2023-12-07T00:43:50;37.50;;;21.70;;
1020;SDS011;499;42.648;23.270;2023-12-07T00:46:34;35.33;;;21.10;;
1020;SDS011;499;42.648;23.270;2023-12-07T00:49:17;33.77;;;21.07;;
1020;SDS011;499;42.648;23.270;2023-12-07T00:51:51;39.50;;;23.00;;
1020;SDS011;499;42.648;23.270;2023-12-07T00:54:31;31.70;;;20.53;;
1020;SDS011;499;42.648;23.270;2023-12-07T00:57:13;36.53;;;22.83;;
1020;SDS011;499;42.648;23.270;2023-12-07T00:59:51;35.93;;;20.73;;
1020;SDS011;499;42.648;23.270;2023-12-07T01:02:23;33.20;;;19.60;;
1020;SDS011;499;42.648;23.270;2023-12-07T01:05:06;35.87;;;19.97;;
1020;SDS011;499;42.648;23.270;2023-12-07T01:07:38;32.43;;;18.17;;
1020;SDS011;499;42.648;23.270;2023-12-07T01:10:08;34.13;;;20.37;;
1020;SDS011;499;42.648;23.270;2023-12-07T01:12:41;31.40;;;19.70;;
1020;SDS011;499;42.648;23.270;2023-12-07T01:15:42;29.30;;;16.13;;
1020;SDS011;499;42.648;23.270;2023-12-07T01:18:27;33.27;;;18.80;;
1020;SDS011;499;42.648;23.270;2023-12-07T01:21:03;31.57;;;19.03;;
1020;SDS011;499;42.648;23.270;2023-12-07T01:23:45;33.17;;;19.87;;
1020;SDS011;499;42.648;23.270;2023-12-07T01:26:40;29.73;;;18.57;;
1020;SDS011;499;42.648;23.270;2023-12-07T01:29:37;27.50;;;16.03;;
1020;SDS011;499;42.648;23.270;2023-12-07T01:32:23;28.77;;;17.90;;
1020;SDS011;499;42.648;23.270;2023-12-07T01:35:07;22.60;;;15.03;;
1020;SDS011;499;42.648;23.270;2023-12-07T01:37:50;27.10;;;18.00;;
1020;SDS011;499;42.648;23.270;2023-12-07T01:40:40;30.40;;;18.40;;
1020;SDS011;499;42.648;23.270;2023-12-07T01:43:24;27.87;;;19.10;;
1020;SDS011;499;42.648;23.270;2023-12-07T01:46:06;28.20;;;17.97;;
1020;SDS011;499;42.648;23.270;2023-12-07T01:48:52;28.63;;;18.23;;
1020;SDS011;499;42.648;23.270;2023-12-07T01:51:40;30.97;;;16.33;;
1020;SDS011;499;42.648;23.270;2023-12-07T01:54:10;25.57;;;17.37;;
1020;SDS011;499;42.648;23.270;2023-12-07T01:56:40;26.43;;;17.20;;
1020;SDS011;499;42.648;23.270;2023-12-07T01:59:23;30.63;;;18.60;;
1020;SDS011;499;42.648;23.270;2023-12-07T02:02:04;26.23;;;17.03;;
1020;SDS011;499;42.648;23.270;2023-12-07T02:05:16;23.20;;;13.90;;
1020;SDS011;499;42.648;23.270;2023-12-07T02:07:58;22.10;;;14.70;;
1020;SDS011;499;42.648;23.270;2023-12-07T02:10:51;29.03;;;17.60;;
1020;SDS011;499;42.648;23.270;2023-12-07T02:13:47;27.50;;;17.03;;
1020;SDS011;499;42.648;23.270;2023-12-07T02:19:26;18.93;;;12.73;;
1020;SDS011;499;42.648;23.270;2023-12-07T02:22:18;19.87;;;14.27;;
1020;SDS011;499;42.648;23.270;2023-12-07T02:25:21;19.80;;;13.13;;
1020;SDS011;499;42.648;23.270;2023-12-07T02:28:03;22.10;;;14.73;;
1020;SDS011;499;42.648;23.270;2023-12-07T02:30:36;19.67;;;14.90;;
1020;SDS011;499;42.648;23.270;2023-12-07T02:33:36;19.63;;;14.57;;
1020;SDS011;499;42.648;23.270;2023-12-07T02:36:11;20.40;;;14.50;;
1020;SDS011;499;42.648;23.270;2023-12-07T02:38:56;19.90;;;13.40;;
1020;SDS011;499;42.648;23.270;2023-12-07T02:41:27;19.87;;;14.30;;
1020;SDS011;499;42.648;23.270;2023-12-07T02:44:01;22.40;;;13.63;;
1020;SDS011;499;42.648;23.270;2023-12-07T02:46:30;20.40;;;13.50;;
1020;SDS011;499;42.648;23.270;2023-12-07T02:49:01;19.63;;;12.90;;
1020;SDS011;499;42.648;23.270;2023-12-07T02:51:36;20.60;;;12.30;;
1020;SDS011;499;42.648;23.270;2023-12-07T02:54:19;22.77;;;14.50;;
1020;SDS011;499;42.648;23.270;2023-12-07T02:57:07;20.43;;;13.30;;
1020;SDS011;499;42.648;23.270;2023-12-07T03:00:01;14.80;;;10.90;;
1020;SDS011;499;42.648;23.270;2023-12-07T03:02:49;16.67;;;12.47;;
1020;SDS011;499;42.648;23.270;2023-12-07T03:05:31;23.43;;;16.10;;
1020;SDS011;499;42.648;23.270;2023-12-07T03:08:06;22.10;;;14.60;;
1020;SDS011;499;42.648;23.270;2023-12-07T03:10:37;27.93;;;13.40;;
1020;SDS011;499;42.648;23.270;2023-12-07T03:13:16;22.80;;;15.57;;
1020;SDS011;499;42.648;23.270;2023-12-07T03:15:47;21.70;;;15.30;;
1020;SDS011;499;42.648;23.270;2023-12-07T03:18:17;24.67;;;17.37;;
1020;SDS011;499;42.648;23.270;2023-12-07T03:20:55;24.17;;;13.17;;
1020;SDS011;499;42.648;23.270;2023-12-07T03:23:42;23.03;;;15.13;;
1020;SDS011;499;42.648;23.270;2023-12-07T03:26:27;25.53;;;15.37;;
1020;SDS011;499;42.648;23.270;2023-12-07T03:29:14;25.93;;;13.67;;
1020;SDS011;499;42.648;23.270;2023-12-07T03:31:55;20.93;;;14.57;;
1020;SDS011;499;42.648;23.270;2023-12-07T03:34:38;23.90;;;15.10;;
1020;SDS011;499;42.648;23.270;2023-12-07T03:37:22;13.80;;;11.50;;
1020;SDS011;499;42.648;23.270;2023-12-07T03:40:07;15.90;;;12.70;;
1020;SDS011;499;42.648;23.270;2023-12-07T03:42:46;19.40;;;12.20;;
1020;SDS011;499;42.648;23.270;2023-12-07T03:45:26;18.50;;;13.70;;
1020;SDS011;499;42.648;23.270;2023-12-07T03:48:24;19.63;;;12.90;;
1020;SDS011;499;42.648;23.270;2023-12-07T03:51:24;16.53;;;11.17;;
1020;SDS011;499;42.648;23.270;2023-12-07T03:54:07;19.13;;;13.70;;
1020;SDS011;499;42.648;23.270;2023-12-07T03:56:50;24.40;;;12.20;;
1020;SDS011;499;42.648;23.270;2023-12-07T03:59:44;14.33;;;11.90;;
1020;SDS011;499;42.648;23.270;2023-12-07T04:02:35;11.30;;;9.47;;
1020;SDS011;499;42.648;23.270;2023-12-07T04:05:19;12.90;;;9.27;;
1020;SDS011;499;42.648;23.270;2023-12-07T04:07:51;14.63;;;11.30;;
1020;SDS011;499;42.648;23.270;2023-12-07T04:10:33;24.13;;;13.40;;
1020;SDS011;499;42.648;23.270;2023-12-07T04:13:20;17.73;;;12.43;;
1020;SDS011;499;42.648;23.270;2023-12-07T04:16:08;18.67;;;12.93;;
1020;SDS011;499;42.648;23.270;2023-12-07T04:18:59;16.80;;;13.17;;
1020;SDS011;499;42.648;23.270;2023-12-07T04:21:48;19.83;;;14.00;;
1020;SDS011;499;42.648;23.270;2023-12-07T04:24:34;26.80;;;15.20;;
1020;SDS011;499;42.648;23.270;2023-12-07T04:27:26;24.87;;;14.70;;
1020;SDS011;499;42.648;23.270;2023-12-07T04:30:13;20.57;;;14.70;;
1020;SDS011;499;42.648;23.270;2023-12-07T04:33:03;21.40;;;13.80;;
1020;SDS011;499;42.648;23.270;2023-12-07T04:35:49;19.80;;;13.30;;
1020;SDS011;499;42.648;23.270;2023-12-07T04:38:38;21.47;;;13.93;;
1020;SDS011;499;42.648;23.270;2023-12-07T04:41:19;19.10;;;12.90;;
1020;SDS011;499;42.648;23.270;2023-12-07T04:44:07;16.07;;;10.63;;
1020;SDS011;499;42.648;23.270;2023-12-07T04:46:54;17.13;;;10.73;;
1020;SDS011;499;42.648;23.270;2023-12-07T04:49:34;16.00;;;11.07;;
1020;SDS011;499;42.648;23.270;2023-12-07T04:52:24;14.30;;;10.53;;
1020;SDS011;499;42.648;23.270;2023-12-07T04:55:18;16.83;;;11.77;;
1020;SDS011;499;42.648;23.270;2023-12-07T04:58:05;16.53;;;11.33;;
1020;SDS011;499;42.648;23.270;2023-12-07T05:00:51;16.70;;;11.10;;
1020;SDS011;499;42.648;23.270;2023-12-07T05:03:35;17.67;;;12.50;;
1020;SDS011;499;42.648;23.270;2023-12-07T05:06:14;15.30;;;12.50;;
1020;SDS011;499;42.648;23.270;2023-12-07T05:08:48;13.37;;;11.37;;
1020;SDS011;499;42.648;23.270;2023-12-07T05:11:38;16.97;;;11.30;;
1020;SDS011;499;42.648;23.270;2023-12-07T05:14:24;16.20;;;11.20;;
1020;SDS011;499;42.648;23.270;2023-12-07T05:17:00;16.60;;;9.83;;
1020;SDS011;499;42.648;23.270;2023-12-07T05:19:40;15.10;;;9.93;;
1020;SDS011;499;42.648;23.270;2023-12-07T05:22:24;12.43;;;8.20;;
1020;SDS011;499;42.648;23.270;2023-12-07T05:25:16;12.17;;;8.60;;
1020;SDS011;499;42.648;23.270;2023-12-07T05:27:58;13.97;;;9.23;;
1020;SDS011;499;42.648;23.270;2023-12-07T05:30:37;10.53;;;8.47;;
1020;SDS011;499;42.648;23.270;2023-12-07T05:33:21;13.97;;;10.00;;
1020;SDS011;499;42.648;23.270;2023-12-07T05:36:01;11.73;;;9.90;;
1020;SDS011;499;42.648;23.270;2023-12-07T05:38:40;11.27;;;8.33;;
1020;SDS011;499;42.648;23.270;2023-12-07T05:41:26;12.20;;;8.57;;
1020;SDS011;499;42.648;23.270;2023-12-07T05:44:16;32.10;;;20.40;;
1020;SDS011;499;42.648;23.270;2023-12-07T05:47:02;38.30;;;25.20;;
1020;SDS011;499;42.648;23.270;2023-12-07T05:49:42;15.70;;;13.20;;
1020;SDS011;499;42.648;23.270;2023-12-07T05:52:25;16.60;;;12.83;;
1020;SDS011;499;42.648;23.270;2023-12-07T05:55:08;17.87;;;12.93;;
1020;SDS011;499;42.648;23.270;2023-12-07T05:57:50;16.67;;;12.43;;
1020;SDS011;499;42.648;23.270;2023-12-07T06:00:38;18.50;;;13.43;;
1020;SDS011;499;42.648;23.270;2023-12-07T06:03:24;16.57;;;12.63;;
1020;SDS011;499;42.648;23.270;2023-12-07T06:06:07;15.70;;;11.80;;
1020;SDS011;499;42.648;23.270;2023-12-07T06:08:49;17.63;;;13.07;;
1020;SDS011;499;42.648;23.270;2023-12-07T06:11:30;13.30;;;11.80;;
1020;SDS011;499;42.648;23.270;2023-12-07T06:14:15;20.57;;;13.87;;
1020;SDS011;499;42.648;23.270;2023-12-07T06:17:09;28.33;;;19.60;;
1020;SDS011;499;42.648;23.270;2023-12-07T06:19:56;16.30;;;11.60;;
1020;SDS011;499;42.648;23.270;2023-12-07T06:22:35;22.90;;;16.00;;
1020;SDS011;499;42.648;23.270;2023-12-07T06:25:17;19.77;;;13.90;;
1020;SDS011;499;42.648;23.270;2023-12-07T06:27:59;17.87;;;12.80;;
1020;SDS011;499;42.648;23.270;2023-12-07T06:30:40;17.63;;;13.63;;
1020;SDS011;499;42.648;23.270;2023-12-07T06:33:37;19.47;;;14.07;;
1020;SDS011;499;42.648;23.270;2023-12-07T06:36:20;25.80;;;14.90;;
1020;SDS011;499;42.648;23.270;2023-12-07T06:39:04;32.20;;;23.10;;
1020;SDS011;499;42.648;23.270;2023-12-07T06:41:41;32.93;;;21.40;;
1020;SDS011;499;42.648;23.270;2023-12-07T06:44:23;25.50;;;16.53;;
1020;SDS011;499;42.648;23.270;2023-12-07T06:47:09;30.50;;;19.93;;
1020;SDS011;499;42.648;23.270;2023-12-07T06:50:07;19.27;;;14.33;;
1020;SDS011;499;42.648;23.270;2023-12-07T06:52:57;17.80;;;14.40;;
1020;SDS011;499;42.648;23.270;2023-12-07T06:55:48;22.73;;;14.47;;
1020;SDS011;499;42.648;23.270;2023-12-07T06:58:31;19.83;;;13.70;;
1020;SDS011;499;42.648;23.270;2023-12-07T07:01:12;23.77;;;15.33;;
1020;SDS011;499;42.648;23.270;2023-12-07T07:04:17;20.23;;;15.90;;
1020;SDS011;499;42.648;23.270;2023-12-07T07:07:00;16.87;;;13.70;;
1020;SDS011;499;42.648;23.270;2023-12-07T07:10:00;14.50;;;11.27;;
1020;SDS011;499;42.648;23.270;2023-12-07T07:12:41;16.10;;;11.43;;
1020;SDS011;499;42.648;23.270;2023-12-07T07:15:30;12.60;;;9.83;;
1020;SDS011;499;42.648;23.270;2023-12-07T07:18:32;10.20;;;7.60;;
1020;SDS011;499;42.648;23.270;2023-12-07T07:21:20;20.77;;;10.07;;
1020;SDS011;499;42.648;23.270;2023-12-07T07:24:09;13.80;;;10.27;;
1020;SDS011;499;42.648;23.270;2023-12-07T07:27:07;16.73;;;10.70;;
1020;SDS011;499;42.648;23.270;2023-12-07T07:29:46;20.90;;;12.17;;
1020;SDS011;499;42.648;23.270;2023-12-07T07:32:24;19.03;;;12.33;;
1020;SDS011;499;42.648;23.270;2023-12-07T07:35:02;19.57;;;12.27;;
1020;SDS011;499;42.648;23.270;2023-12-07T07:37:38;18.87;;;12.20;;
1020;SDS011;499;42.648;23.270;2023-12-07T07:40:31;18.23;;;11.83;;
1020;SDS011;499;42.648;23.270;2023-12-07T07:43:16;10.73;;;9.20;;
1020;SDS011;499;42.648;23.270;2023-12-07T07:45:47;14.50;;;10.73;;
1020;SDS011;499;42.648;23.270;2023-12-07T07:48:38;19.27;;;13.27;;
1020;SDS011;499;42.648;23.270;2023-12-07T07:51:29;16.67;;;11.50;;
1020;SDS011;499;42.648;23.270;2023-12-07T07:54:13;25.23;;;14.93;;
1020;SDS011;499;42.648;23.270;2023-12-07T07:57:09;19.70;;;13.77;;
1020;SDS011;499;42.648;23.270;2023-12-07T07:59:40;16.93;;;11.43;;
1020;SDS011;499;42.648;23.270;2023-12-07T08:02:31;28.20;;;15.03;;
1020;SDS011;499;42.648;23.270;2023-12-07T08:08:51;15.20;;;9.60;;
1020;SDS011;499;42.648;23.270;2023-12-07T08:11:32;13.90;;;10.07;;
1020;SDS011;499;42.648;23.270;2023-12-07T08:14:13;8.97;;;7.60;;
1020;SDS011;499;42.648;23.270;2023-12-07T08:16:44;16.73;;;11.10;;
1020;SDS011;499;42.648;23.270;2023-12-07T08:19:41;6.57;;;5.20;;
1020;SDS011;499;42.648;23.270;2023-12-07T08:22:27;8.20;;;6.00;;
1020;SDS011;499;42.648;23.270;2023-12-07T08:25:12;11.03;;;7.10;;
1020;SDS011;499;42.648;23.270;2023-12-07T08:27:47;11.80;;;8.30;;
1020;SDS011;499;42.648;23.270;2023-12-07T08:30:43;11.47;;;8.23;;
1020;SDS011;499;42.648;23.270;2023-12-07T08:37:29;6.60;;;5.40;;
1020;SDS011;499;42.648;23.270;2023-12-07T08:40:32;9.23;;;6.63;;
1020;SDS011;499;42.648;23.270;2023-12-07T08:43:00;6.37;;;5.10;;
1020;SDS011;499;42.648;23.270;2023-12-07T08:45:49;9.80;;;7.50;;
1020;SDS011;499;42.648;23.270;2023-12-07T08:48:21;6.87;;;5.37;;
1020;SDS011;499;42.648;23.270;2023-12-07T08:51:16;8.00;;;5.40;;
1020;SDS011;499;42.648;23.270;2023-12-07T08:53:48;15.20;;;11.40;;
1020;SDS011;499;42.648;23.270;2023-12-07T08:56:37;5.93;;;4.50;;
1020;SDS011;499;42.648;23.270;2023-12-07T08:59:09;5.03;;;4.30;;
1020;SDS011;499;42.648;23.270;2023-12-07T09:02:06;5.40;;;4.30;;
1020;SDS011;499;42.648;23.270;2023-12-07T09:04:39;5.10;;;4.60;;
1020;SDS011;499;42.648;23.270;2023-12-07T09:07:08;6.23;;;5.07;;
1020;SDS011;499;42.648;23.270;2023-12-07T09:09:47;11.37;;;4.90;;
1020;SDS011;499;42.648;23.270;2023-12-07T09:12:31;4.33;;;3.00;;
1020;SDS011;499;42.648;23.270;2023-12-07T09:15:28;3.83;;;3.53;;
1020;SDS011;499;42.648;23.270;2023-12-07T09:18:07;3.87;;;3.10;;
1020;SDS011;499;42.648;23.270;2023-12-07T09:20:59;3.33;;;2.80;;
1020;SDS011;499;42.648;23.270;2023-12-07T09:23:35;3.47;;;3.17;;
1020;SDS011;499;42.648;23.270;2023-12-07T09:26:07;3.87;;;3.57;;
1020;SDS011;499;42.648;23.270;2023-12-07T09:28:46;3.53;;;3.23;;
1020;SDS011;499;42.648;23.270;2023-12-07T09:31:32;3.63;;;3.33;;
1020;SDS011;499;42.648;23.270;2023-12-07T09:34:19;4.07;;;3.40;;
1020;SDS011;499;42.648;23.270;2023-12-07T09:36:49;4.93;;;3.63;;
1020;SDS011;499;42.648;23.270;2023-12-07T09:39:38;3.80;;;3.40;;
1020;SDS011;499;42.648;23.270;2023-12-07T09:42:08;7.30;;;4.47;;
1020;SDS011;499;42.648;23.270;2023-12-07T09:45:21;3.53;;;3.10;;
1020;SDS011;499;42.648;23.270;2023-12-07T09:48:02;3.20;;;2.90;;
1020;SDS011;499;42.648;23.270;2023-12-07T09:50:48;3.40;;;3.10;;
1020;SDS011;499;42.648;23.270;2023-12-07T09:53:17;3.37;;;3.10;;
1020;SDS011;499;42.648;23.270;2023-12-07T09:55:53;3.77;;;2.50;;
1020;SDS011;499;42.648;23.270;2023-12-07T09:58:37;4.30;;;3.23;;
1020;SDS011;499;42.648;23.270;2023-12-07T10:01:48;2.63;;;2.43;;
1020;SDS011;499;42.648;23.270;2023-12-07T10:04:19;5.23;;;4.73;;
1020;SDS011;499;42.648;23.270;2023-12-07T10:10:41;4.60;;;4.20;;
1020;SDS011;499;42.648;23.270;2023-12-07T10:13:12;3.43;;;3.10;;
1020;SDS011;499;42.648;23.270;2023-12-07T10:15:41;6.90;;;6.27;;
1020;SDS011;499;42.648;23.270;2023-12-07T10:18:12;2.60;;;2.40;;
1020;SDS011;499;42.648;23.270;2023-12-07T10:21:00;2.33;;;2.13;;
1020;SDS011;499;42.648;23.270;2023-12-07T10:23:54;6.10;;;3.87;;
1020;SDS011;499;42.648;23.270;2023-12-07T10:26:34;6.00;;;3.13;;
1020;SDS011;499;42.648;23.270;2023-12-07T10:29:04;2.00;;;1.90;;
1020;SDS011;499;42.648;23.270;2023-12-07T10:31:33;3.30;;;2.53;;
1020;SDS011;499;42.648;23.270;2023-12-07T10:34:07;2.33;;;2.13;;
1020;SDS011;499;42.648;23.270;2023-12-07T10:36:34;3.10;;;2.80;;
1020;SDS011;499;42.648;23.270;2023-12-07T10:39:03;4.27;;;3.10;;
1020;SDS011;499;42.648;23.270;2023-12-07T10:41:41;3.70;;;3.40;;
1020;SDS011;499;42.648;23.270;2023-12-07T10:44:29;4.20;;;3.33;;
1020;SDS011;499;42.648;23.270;2023-12-07T10:47:28;5.10;;;4.20;;
1020;SDS011;499;42.648;23.270;2023-12-07T10:50:32;3.00;;;2.43;;
1020;SDS011;499;42.648;23.270;2023-12-07T10:53:19;3.43;;;3.13;;
1020;SDS011;499;42.648;23.270;2023-12-07T10:56:09;4.13;;;3.20;;
1020;SDS011;499;42.648;23.270;2023-12-07T10:59:11;3.53;;;3.00;;
1020;SDS011;499;42.648;23.270;2023-12-07T11:02:02;3.50;;;2.60;;
1020;SDS011;499;42.648;23.270;2023-12-07T11:04:51;2.63;;;2.17;;
1020;SDS011;499;42.648;23.270;2023-12-07T11:07:46;2.53;;;2.33;;
1020;SDS011;499;42.648;23.270;2023-12-07T11:10:20;5.00;;;1.50;;
1020;SDS011;499;42.648;23.270;2023-12-07T11:12:58;1.80;;;1.70;;
1020;SDS011;499;42.648;23.270;2023-12-07T11:15:58;1.93;;;1.83;;
1020;SDS011;499;42.648;23.270;2023-12-07T11:18:46;1.83;;;1.53;;
1020;SDS011;499;42.648;23.270;2023-12-07T11:21:39;2.20;;;1.80;;
1020;SDS011;499;42.648;23.270;2023-12-07T11:24:24;1.50;;;1.40;;
1020;SDS011;499;42.648;23.270;2023-12-07T11:27:15;1.97;;;1.60;;
1020;SDS011;499;42.648;23.270;2023-12-07T11:29:46;3.43;;;2.43;;
1020;SDS011;499;42.648;23.270;2023-12-07T11:32:17;3.00;;;2.17;;
1020;SDS011;499;42.648;23.270;2023-12-07T11:34:46;2.00;;;1.90;;
1020;SDS011;499;42.648;23.270;2023-12-07T11:37:14;2.53;;;1.70;;
1020;SDS011;499;42.648;23.270;2023-12-07T11:39:44;2.00;;;1.80;;
1020;SDS011;499;42.648;23.270;2023-12-07T11:42:16;2.07;;;1.87;;
1020;SDS011;499;42.648;23.270;2023-12-07T11:44:48;1.50;;;1.40;;
1020;SDS011;499;42.648;23.270;2023-12-07T11:47:31;2.50;;;2.07;;
1020;SDS011;499;42.648;23.270;2023-12-07T11:50:19;2.07;;;1.93;;
1020;SDS011;499;42.648;23.270;2023-12-07T11:53:08;2.47;;;2.27;;
1020;SDS011;499;42.648;23.270;2023-12-07T11:55:38;2.70;;;2.50;;
1020;SDS011;499;42.648;23.270;2023-12-07T11:58:12;2.00;;;1.90;;
1020;SDS011;499;42.648;23.270;2023-12-07T12:00:43;2.70;;;2.40;;
1020;SDS011;499;42.648;23.270;2023-12-07T12:03:27;2.37;;;1.93;;
1020;SDS011;499;42.648;23.270;2023-12-07T12:05:57;1.97;;;1.87;;
1020;SDS011;499;42.648;23.270;2023-12-07T12:08:27;2.33;;;2.00;;
1020;SDS011;499;42.648;23.270;2023-12-07T12:10:58;2.17;;;1.97;;
1020;SDS011;499;42.648;23.270;2023-12-07T12:13:27;3.10;;;2.00;;
1020;SDS011;499;42.648;23.270;2023-12-07T12:15:58;3.20;;;2.60;;
1020;SDS011;499;42.648;23.270;2023-12-07T12:18:42;2.03;;;1.93;;
1020;SDS011;499;42.648;23.270;2023-12-07T12:21:21;2.53;;;1.93;;
1020;SDS011;499;42.648;23.270;2023-12-07T12:24:14;2.37;;;1.93;;
1020;SDS011;499;42.648;23.270;2023-12-07T12:27:12;2.40;;;2.20;;
1020;SDS011;499;42.648;23.270;2023-12-07T12:30:07;4.70;;;3.30;;
1020;SDS011;499;42.648;23.270;2023-12-07T12:33:04;3.38;;;2.50;;
1020;SDS011;499;42.648;23.270;2023-12-07T12:36:14;3.87;;;2.37;;
1020;SDS011;499;42.648;23.270;2023-12-07T12:39:09;2.03;;;1.70;;
1020;SDS011;499;42.648;23.270;2023-12-07T12:42:02;2.40;;;2.20;;
1020;SDS011;499;42.648;23.270;2023-12-07T12:44:44;2.60;;;2.23;;
1020;SDS011;499;42.648;23.270;2023-12-07T12:47:31;3.67;;;3.20;;
1020;SDS011;499;42.648;23.270;2023-12-07T12:53:23;4.43;;;3.60;;
1020;SDS011;499;42.648;23.270;2023-12-07T12:55:58;6.57;;;5.57;;
1020;SDS011;499;42.648;23.270;2023-12-07T12:58:41;3.33;;;2.17;;
1020;SDS011;499;42.648;23.270;2023-12-07T13:01:22;7.10;;;3.93;;
1020;SDS011;499;42.648;23.270;2023-12-07T13:04:07;10.33;;;6.60;;
1020;SDS011;499;42.648;23.270;2023-12-07T13:06:48;4.47;;;3.30;;
1020;SDS011;499;42.648;23.270;2023-12-07T13:09:29;4.10;;;3.30;;
1020;SDS011;499;42.648;23.270;2023-12-07T13:12:09;4.78;;;4.28;;
1020;SDS011;499;42.648;23.270;2023-12-07T13:14:38;3.20;;;3.00;;
1020;SDS011;499;42.648;23.270;2023-12-07T13:17:07;5.00;;;4.57;;
1020;SDS011;499;42.648;23.270;2023-12-07T13:19:35;4.23;;;3.63;;
1020;SDS011;499;42.648;23.270;2023-12-07T13:22:11;4.20;;;3.60;;
1020;SDS011;499;42.648;23.270;2023-12-07T13:24:43;5.90;;;3.77;;
1020;SDS011;499;42.648;23.270;2023-12-07T13:27:21;8.10;;;4.78;;
1020;SDS011;499;42.648;23.270;2023-12-07T13:30:07;5.10;;;4.03;;
1020;SDS011;499;42.648;23.270;2023-12-07T13:32:44;5.60;;;4.30;;
1020;SDS011;499;42.648;23.270;2023-12-07T13:35:23;4.57;;;4.18;;
1020;SDS011;499;42.648;23.270;2023-12-07T13:38:01;4.33;;;3.40;;
1020;SDS011;499;42.648;23.270;2023-12-07T13:40:48;4.10;;;3.60;;
1020;SDS011;499;42.648;23.270;2023-12-07T13:43:26;6.10;;;4.90;;
1020;SDS011;499;42.648;23.270;2023-12-07T13:45:55;7.15;;;6.45;;
1020;SDS011;499;42.648;23.270;2023-12-07T13:48:24;2.83;;;2.63;;
1020;SDS011;499;42.648;23.270;2023-12-07T13:50:56;4.90;;;3.83;;
1020;SDS011;499;42.648;23.270;2023-12-07T13:53:25;6.72;;;3.95;;
1020;SDS011;499;42.648;23.270;2023-12-07T13:55:59;4.40;;;4.03;;
1020;SDS011;499;42.648;23.270;2023-12-07T13:58:29;41.30;;;24.40;;
1020;SDS011;499;42.648;23.270;2023-12-07T14:00:58;14.93;;;10.55;;
1020;SDS011;499;42.648;23.270;2023-12-07T14:03:31;12.45;;;10.57;;
1020;SDS011;499;42.648;23.270;2023-12-07T14:06:04;6.50;;;5.25;;
1020;SDS011;499;42.648;23.270;2023-12-07T14:08:39;4.50;;;3.83;;
1020;SDS011;499;42.648;23.270;2023-12-07T14:11:24;5.33;;;4.80;;
1020;SDS011;499;42.648;23.270;2023-12-07T14:13:55;4.60;;;3.80;;
1020;SDS011;499;42.648;23.270;2023-12-07T14:16:29;4.50;;;4.10;;
1020;SDS011;499;42.648;23.270;2023-12-07T14:18:57;6.03;;;4.95;;
1020;SDS011;499;42.648;23.270;2023-12-07T14:21:25;5.73;;;4.57;;
1020;SDS011;499;42.648;23.270;2023-12-07T14:23:54;7.20;;;6.40;;
1020;SDS011;499;42.648;23.270;2023-12-07T14:26:27;4.77;;;4.37;;
1020;SDS011;499;42.648;23.270;2023-12-07T14:28:56;4.20;;;3.80;;
1020;SDS011;499;42.648;23.270;2023-12-07T14:31:27;4.20;;;3.77;;
1020;SDS011;499;42.648;23.270;2023-12-07T14:33:58;4.10;;;3.73;;
1020;SDS011;499;42.648;23.270;2023-12-07T14:36:28;9.20;;;4.37;;
1020;SDS011;499;42.648;23.270;2023-12-07T14:39:01;9.40;;;8.50;;
1020;SDS011;499;42.648;23.270;2023-12-07T14:41:53;6.37;;;5.07;;
1020;SDS011;499;42.648;23.270;2023-12-07T14:44:21;4.72;;;4.15;;
1020;SDS011;499;42.648;23.270;2023-12-07T14:46:48;5.27;;;4.00;;
1020;SDS011;499;42.648;23.270;2023-12-07T14:49:16;4.60;;;4.20;;
1020;SDS011;499;42.648;23.270;2023-12-07T14:51:46;7.10;;;6.40;;
1020;SDS011;499;42.648;23.270;2023-12-07T14:54:13;13.23;;;11.90;;
1020;SDS011;499;42.648;23.270;2023-12-07T14:56:41;8.27;;;6.78;;
1020;SDS011;499;42.648;23.270;2023-12-07T14:59:30;12.75;;;10.35;;
1020;SDS011;499;42.648;23.270;2023-12-07T15:02:04;5.47;;;4.97;;
1020;SDS011;499;42.648;23.270;2023-12-07T15:04:42;19.85;;;13.32;;
1020;SDS011;499;42.648;23.270;2023-12-07T15:07:22;9.50;;;6.78;;
1020;SDS011;499;42.648;23.270;2023-12-07T15:09:55;6.95;;;5.18;;
1020;SDS011;499;42.648;23.270;2023-12-07T15:12:40;9.65;;;6.35;;
1020;SDS011;499;42.648;23.270;2023-12-07T15:15:11;4.45;;;3.92;;
1020;SDS011;499;42.648;23.270;2023-12-07T15:17:43;23.38;;;17.50;;
1020;SDS011;499;42.648;23.270;2023-12-07T15:20:16;6.32;;;4.85;;
1020;SDS011;499;42.648;23.270;2023-12-07T15:22:54;4.10;;;3.70;;
1020;SDS011;499;42.648;23.270;2023-12-07T15:25:29;7.97;;;6.60;;
1020;SDS011;499;42.648;23.270;2023-12-07T15:27:56;6.18;;;5.10;;
1020;SDS011;499;42.648;23.270;2023-12-07T15:30:26;5.40;;;4.50;;
1020;SDS011;499;42.648;23.270;2023-12-07T15:33:13;14.15;;;9.50;;
1020;SDS011;499;42.648;23.270;2023-12-07T15:35:52;6.22;;;5.00;;
1020;SDS011;499;42.648;23.270;2023-12-07T15:38:25;5.20;;;4.50;;
1020;SDS011;499;42.648;23.270;2023-12-07T15:41:02;6.63;;;5.55;;
1020;SDS011;499;42.648;23.270;2023-12-07T15:43:45;7.60;;;5.97;;
1020;SDS011;499;42.648;23.270;2023-12-07T15:46:22;6.03;;;5.43;;
1020;SDS011;499;42.648;23.270;2023-12-07T15:49:03;8.00;;;5.60;;
1020;SDS011;499;42.648;23.270;2023-12-07T15:51:49;5.97;;;5.37;;
1020;SDS011;499;42.648;23.270;2023-12-07T15:54:18;6.90;;;5.87;;
1020;SDS011;499;42.648;23.270;2023-12-07T15:56:48;15.97;;;12.47;;
1020;SDS011;499;42.648;23.270;2023-12-07T15:59:19;5.30;;;4.50;;
1020;SDS011;499;42.648;23.270;2023-12-07T16:01:55;7.20;;;5.85;;
1020;SDS011;499;42.648;23.270;2023-12-07T16:04:29;4.93;;;4.43;;
1020;SDS011;499;42.648;23.270;2023-12-07T16:07:14;6.60;;;4.90;;
1020;SDS011;499;42.648;23.270;2023-12-07T16:09:43;11.73;;;6.88;;
1020;SDS011;499;42.648;23.270;2023-12-07T16:12:13;8.43;;;7.20;;
1020;SDS011;499;42.648;23.270;2023-12-07T16:14:46;7.33;;;6.50;;
1020;SDS011;499;42.648;23.270;2023-12-07T16:17:25;22.13;;;11.17;;
1020;SDS011;499;42.648;23.270;2023-12-07T16:19:58;15.77;;;7.97;;
1020;SDS011;499;42.648;23.270;2023-12-07T16:22:37;15.10;;;10.60;;
1020;SDS011;499;42.648;23.270;2023-12-07T16:25:16;7.93;;;5.27;;
1020;SDS011;499;42.648;23.270;2023-12-07T16:27:44;6.83;;;6.13;;
1020;SDS011;499;42.648;23.270;2023-12-07T16:30:17;5.63;;;4.70;;
1020;SDS011;499;42.648;23.270;2023-12-07T16:33:16;4.65;;;4.25;;
1020;SDS011;499;42.648;23.270;2023-12-07T16:36:25;7.72;;;5.57;;
1020;SDS011;499;42.648;23.270;2023-12-07T16:39:14;10.88;;;7.80;;
1020;SDS011;499;42.648;23.270;2023-12-07T16:42:11;7.70;;;5.70;;
1020;SDS011;499;42.648;23.270;2023-12-07T16:44:53;8.95;;;7.38;;